NY01 weather

Knowlesville Airport
Knowlesville, New York, United States

Public forecast

Using degrees Fahrenheit for public forecast. Weather courtesy of forecast.io.

Closest aviation weather report (METAR) to Knowlesville Airport

Closest report is Buffalo Niagara International Airport, 24.9 nm (46.0 km) SW. Retrieved 2019/12/07 11:44 UTC (0 seconds ago):

KBUF 071144Z 30005KT 10SM SCT023 OVC039 M02/M07 A3034

Closest aviation forecast (TAF) to Knowlesville Airport

Closest forecast is Buffalo Niagara International Airport, 24.9 nm (46.0 km) SW. Retrieved 2019/12/07 06:28 UTC (5 hours ago):

TAF KBUF 070526Z 0706/0806 28008KT P6SM -SHSN BKN045 FM071000 28008KT P6SM BKN040 FM071400 30010KT P6SM SCT050 BKN150 FM071800 27008KT P6SM SCT050 BKN120 FM080000 18004KT P6SM SCT120